Time,TemperatureF,DewpointF,PressureIn,WindDirection,WindDirectionDegrees,WindSpeedMPH,WindSpeedGustMPH,Humidity,HourlyPrecipIn,Conditions,Clouds,dailyrainin,SoftwareType,DateUTC
2013-07-04 00:00:00,74.6,74.3,30.03,East,82,0.0,6.0,99,0.00,,,1.56,Wunderground v.1.15,2013-07-04 04:00:00,
2013-07-04 00:05:00,74.6,74.3,30.03,ESE,117,0.0,7.0,99,0.00,,,1.56,Wunderground v.1.15,2013-07-04 04:05:00,
2013-07-04 00:15:00,74.6,74.3,30.03,ESE,120,2.0,7.0,99,0.00,,,1.56,Wunderground v.1.15,2013-07-04 04:15:00,
2013-07-04 00:20:00,74.6,74.3,30.03,ESE,117,0.0,7.0,99,0.00,,,1.56,Wunderground v.1.15,2013-07-04 04:20:00,
2013-07-04 00:25:00,74.6,74.3,30.03,ENE,78,0.0,7.0,99,0.00,,,1.56,Wunderground v.1.15,2013-07-04 04:25:00,
2013-07-04 00:30:00,74.6,74.3,30.03,ESE,110,0.0,7.0,99,0.00,,,1.56,Wunderground v.1.15,2013-07-04 04:30:00,
2013-07-04 00:35:00,74.6,74.3,30.02,ESE,103,0.0,7.0,99,0.00,,,0.00,Wunderground v.1.15,2013-07-04 04:35:00,
2013-07-04 00:45:00,74.6,74.3,30.02,ESE,110,1.0,7.0,99,0.00,,,0.00,Wunderground v.1.15,2013-07-04 04:45:00,
2013-07-04 00:55:00,74.6,74.3,30.02,ESE,114,1.0,7.0,99,0.00,,,0.00,Wunderground v.1.15,2013-07-04 04:55:00,
2013-07-04 01:05:00,74.6,74.3,30.02,ESE,117,0.0,7.0,99,0.00,,,0.00,Wunderground v.1.15,2013-07-04 05:05:00,
2013-07-04 01:10:00,74.6,74.3,30.02,ESE,121,0.0,7.0,99,0.00,,,0.00,Wunderground v.1.15,2013-07-04 05:10:00,
2013-07-04 01:20:00,74.6,74.3,30.01,ESE,114,1.0,1.0,99,0.00,,,0.00,Wunderground v.1.15,2013-07-04 05:20:00,
2013-07-04 01:25:00,74.6,74.3,30.01,ESE,105,1.0,7.0,99,0.00,,,0.00,Wunderground v.1.15,2013-07-04 05:25:00,
2013-07-04 01:35:00,74.6,74.3,30.01,East,95,2.0,2.0,99,0.00,,,0.00,Wunderground v.1.15,2013-07-04 05:35:00,
2013-07-04 01:45:00,74.6,74.3,30.01,ESE,117,2.0,7.0,99,0.00,,,0.00,Wunderground v.1.15,2013-07-04 05:45:00,
2013-07-04 01:50:00,74.6,74.3,30.00,SE,129,3.0,3.0,99,0.00,,,0.00,Wunderground v.1.15,2013-07-04 05:50:00,
2013-07-04 02:00:00,74.4,74.1,30.00,ESE,105,0.0,7.0,99,0.00,,,0.00,Wunderground v.1.15,2013-07-04 06:00:00,
2013-07-04 02:10:00,74.2,73.9,29.99,ESE,106,0.0,7.0,99,0.00,,,0.00,Wunderground v.1.15,2013-07-04 06:10:00,
2013-07-04 02:15:00,74.2,73.9,29.99,ESE,106,0.0,7.0,99,0.00,,,0.00,Wunderground v.1.15,2013-07-04 06:15:00,
2013-07-04 02:25:00,74.0,73.7,29.99,ESE,122,0.0,7.0,99,0.00,,,0.00,Wunderground v.1.15,2013-07-04 06:25:00,
2013-07-04 02:35:00,73.9,73.6,29.99,ESE,117,1.0,7.0,99,0.00,,,0.00,Wunderground v.1.15,2013-07-04 06:35:00,
2013-07-04 02:40:00,73.9,73.6,29.99,ESE,113,2.0,7.0,99,0.00,,,0.00,Wunderground v.1.15,2013-07-04 06:40:00,
2013-07-04 02:50:00,74.0,73.7,29.99,East,101,3.0,3.0,99,0.00,,,0.00,Wunderground v.1.15,2013-07-04 06:50:00,
2013-07-04 03:00:00,73.9,73.6,29.99,ESE,114,3.0,9.0,99,0.00,,,0.00,Wunderground v.1.15,2013-07-04 07:00:00,
2013-07-04 03:05:00,73.9,73.3,29.99,SE,133,6.0,9.0,98,0.00,,,0.00,Wunderground v.1.15,2013-07-04 07:05:00,
2013-07-04 03:15:00,73.9,73.3,29.99,SE,124,4.0,19.0,98,0.00,,,0.00,Wunderground v.1.15,2013-07-04 07:15:00,
2013-07-04 03:25:00,73.7,73.1,29.98,ESE,108,8.0,8.0,98,0.00,,,0.00,Wunderground v.1.15,2013-07-04 07:25:00,
2013-07-04 03:30:00,73.7,73.1,29.98,ESE,110,6.0,6.0,98,0.00,,,0.00,Wunderground v.1.15,2013-07-04 07:30:00,
2013-07-04 03:40:00,73.5,72.9,29.98,ESE,103,3.0,3.0,98,0.00,,,0.00,Wunderground v.1.15,2013-07-04 07:40:00,
2013-07-04 03:50:00,73.3,72.7,29.97,SE,124,1.0,1.0,98,0.00,,,0.00,Wunderground v.1.15,2013-07-04 07:50:00,
2013-07-04 03:55:00,73.3,72.7,29.97,ESE,110,0.0,19.0,98,0.00,,,0.00,Wunderground v.1.15,2013-07-04 07:55:00,
2013-07-04 04:05:00,73.3,72.7,29.97,ESE,103,0.0,19.0,98,0.00,,,0.00,Wunderground v.1.15,2013-07-04 08:05:00,
2013-07-04 04:15:00,73.3,72.7,29.97,East,101,2.0,19.0,98,0.00,,,0.00,Wunderground v.1.15,2013-07-04 08:15:00,
2013-07-04 04:20:00,73.3,72.7,29.97,ESE,122,1.0,1.0,98,0.00,,,0.00,Wunderground v.1.15,2013-07-04 08:20:00,
2013-07-04 04:30:00,73.2,72.6,29.97,East,89,1.0,1.0,98,0.00,,,0.00,Wunderground v.1.15,2013-07-04 08:30:00,
2013-07-04 04:35:00,73.2,72.6,29.97,ESE,122,2.0,2.0,98,0.00,,,0.00,Wunderground v.1.15,2013-07-04 08:35:00,
2013-07-04 04:45:00,73.2,72.6,29.97,SE,124,3.0,19.0,98,0.00,,,0.00,Wunderground v.1.15,2013-07-04 08:45:00,
2013-07-04 04:50:00,73.2,72.6,29.97,East,84,4.0,19.0,98,0.00,,,0.00,Wunderground v.1.15,2013-07-04 08:50:00,
2013-07-04 05:00:00,73.2,72.6,29.97,ESE,113,2.0,2.0,98,0.00,,,0.00,Wunderground v.1.15,2013-07-04 09:00:00,
2013-07-04 05:10:00,73.0,72.4,29.97,ESE,108,2.0,2.0,98,0.00,,,0.00,Wunderground v.1.15,2013-07-04 09:10:00,
2013-07-04 05:15:00,73.0,72.4,29.97,ESE,102,3.0,3.0,98,0.00,,,0.00,Wunderground v.1.15,2013-07-04 09:15:00,
2013-07-04 05:20:00,73.0,72.1,29.97,SE,135,4.0,19.0,97,0.00,,,0.00,Wunderground v.1.15,2013-07-04 09:20:00,
2013-07-04 05:30:00,73.2,72.3,29.97,ESE,104,4.0,4.0,97,0.00,,,0.00,Wunderground v.1.15,2013-07-04 09:30:00,
2013-07-04 05:40:00,73.0,72.1,29.97,ESE,104,2.0,2.0,97,0.00,,,0.00,Wunderground v.1.15,2013-07-04 09:40:00,
2013-07-04 05:45:00,73.0,72.1,29.97,East,79,2.0,5.0,97,0.00,,,0.00,Wunderground v.1.15,2013-07-04 09:45:00,
2013-07-04 05:55:00,73.0,72.1,29.97,ESE,113,2.0,11.0,97,0.00,,,0.00,Wunderground v.1.15,2013-07-04 09:55:00,
2013-07-04 06:00:00,73.0,72.1,29.97,ESE,110,2.0,2.0,97,0.00,,,0.00,Wunderground v.1.15,2013-07-04 10:00:00,
2013-07-04 06:05:00,73.0,71.8,29.97,ESE,103,3.0,3.0,96,0.00,,,0.00,Wunderground v.1.15,2013-07-04 10:05:00,
2013-07-04 06:15:00,73.0,71.8,29.97,ESE,110,1.0,13.0,96,0.00,,,0.00,Wunderground v.1.15,2013-07-04 10:15:00,
2013-07-04 06:20:00,73.0,71.8,29.98,SE,127,1.0,13.0,96,0.00,,,0.00,Wunderground v.1.15,2013-07-04 10:20:00,
2013-07-04 06:30:00,73.0,71.8,29.98,ESE,105,3.0,13.0,96,0.00,,,0.00,Wunderground v.1.15,2013-07-04 10:30:00,
2013-07-04 06:35:00,73.0,71.8,29.98,ESE,108,3.0,13.0,96,0.00,,,0.00,Wunderground v.1.15,2013-07-04 10:35:00,
2013-07-04 06:45:00,73.0,71.8,29.98,ESE,105,2.0,4.0,96,0.00,,,0.00,Wunderground v.1.15,2013-07-04 10:45:00,
2013-07-04 06:50:00,73.0,71.8,29.98,SE,130,3.0,13.0,96,0.00,,,0.00,Wunderground v.1.15,2013-07-04 10:50:00,
2013-07-04 07:00:00,73.0,71.8,29.98,ESE,113,2.0,13.0,96,0.00,,,0.00,Wunderground v.1.15,2013-07-04 11:00:00,
2013-07-04 07:05:00,73.0,71.8,29.98,SE,125,2.0,13.0,96,0.00,,,0.00,Wunderground v.1.15,2013-07-04 11:05:00,
2013-07-04 07:10:00,73.2,72.0,29.98,SE,124,2.0,2.0,96,0.00,,,0.00,Wunderground v.1.15,2013-07-04 11:10:00,
2013-07-04 07:20:00,73.2,72.0,29.99,SE,131,2.0,2.0,96,0.00,,,0.00,Wunderground v.1.15,2013-07-04 11:20:00,
2013-07-04 07:25:00,73.3,72.1,29.99,ESE,106,2.0,9.0,96,0.00,,,0.00,Wunderground v.1.15,2013-07-04 11:25:00,
2013-07-04 07:35:00,73.5,72.0,30.00,ESE,110,4.0,13.0,95,0.00,,,0.00,Wunderground v.1.15,2013-07-04 11:35:00,
2013-07-04 07:40:00,73.7,72.2,30.00,SE,139,4.0,4.0,95,0.00,,,0.00,Wunderground v.1.15,2013-07-04 11:40:00,
2013-07-04 07:50:00,74.2,72.4,30.00,ESE,120,3.0,3.0,94,0.00,,,0.00,Wunderground v.1.15,2013-07-04 11:50:00,
2013-07-04 07:55:00,74.6,72.4,30.00,SE,145,3.0,11.0,93,0.00,,,0.00,Wunderground v.1.15,2013-07-04 11:55:00,
2013-07-04 08:00:00,74.7,72.2,30.00,ESE,122,4.0,4.0,92,0.00,,,0.00,Wunderground v.1.15,2013-07-04 12:00:00,
2013-07-04 08:10:00,75.3,72.8,30.01,ESE,120,3.0,13.0,92,0.00,,,0.00,Wunderground v.1.15,2013-07-04 12:10:00,
2013-07-04 08:15:00,75.6,72.5,30.01,ESE,118,6.0,13.0,90,0.00,,,0.00,Wunderground v.1.15,2013-07-04 12:15:00,
2013-07-04 08:25:00,76.3,72.8,30.01,East,89,5.0,14.0,89,0.00,,,0.00,Wunderground v.1.15,2013-07-04 12:25:00,
2013-07-04 08:30:00,76.5,72.7,30.01,ESE,109,6.0,13.0,88,0.00,,,0.00,Wunderground v.1.15,2013-07-04 12:30:00,
2013-07-04 08:40:00,77.2,73.0,30.01,East,100,7.0,13.0,87,0.00,,,0.00,Wunderground v.1.15,2013-07-04 12:40:00,
2013-07-04 08:45:00,77.6,73.4,30.01,SE,130,7.0,13.0,87,0.00,,,0.00,Wunderground v.1.15,2013-07-04 12:45:00,
2013-07-04 08:55:00,77.9,73.4,30.01,East,97,8.0,14.0,86,0.00,,,0.00,Wunderground v.1.15,2013-07-04 12:55:00,
2013-07-04 09:00:00,78.1,73.6,30.01,ESE,111,10.0,16.0,86,0.00,,,0.00,Wunderground v.1.15,2013-07-04 13:00:00,
2013-07-04 09:05:00,78.3,73.4,30.01,East,86,11.0,16.0,85,0.00,,,0.00,Wunderground v.1.15,2013-07-04 13:05:00,
2013-07-04 09:15:00,78.8,73.6,30.01,ENE,77,9.0,22.0,84,0.00,,,0.00,Wunderground v.1.15,2013-07-04 13:15:00,
2013-07-04 09:20:00,79.0,73.7,30.01,ESE,115,9.0,22.0,84,0.00,,,0.00,Wunderground v.1.15,2013-07-04 13:20:00,
2013-07-04 09:30:00,79.6,74.3,30.01,ESE,115,9.0,9.0,84,0.00,,,0.00,Wunderground v.1.15,2013-07-04 13:30:00,
2013-07-04 09:40:00,79.8,74.2,30.01,SE,134,11.0,11.0,83,0.00,,,0.00,Wunderground v.1.15,2013-07-04 13:40:00,
2013-07-04 09:45:00,80.3,74.7,30.01,ESE,105,11.0,14.0,83,0.00,,,0.00,Wunderground v.1.15,2013-07-04 13:45:00,
2013-07-04 09:50:00,80.9,74.9,30.01,ESE,122,11.0,22.0,82,0.00,,,0.00,Wunderground v.1.15,2013-07-04 13:50:00,
2013-07-04 10:00:00,80.9,74.5,30.01,ESE,117,13.0,22.0,81,0.00,,,0.00,Wunderground v.1.15,2013-07-04 14:00:00,
2013-07-04 10:05:00,80.9,74.5,30.01,ENE,75,14.0,22.0,81,0.00,,,0.00,Wunderground v.1.15,2013-07-04 14:05:00,
2013-07-04 10:15:00,81.1,74.7,30.01,ESE,106,13.0,22.0,81,0.00,,,0.00,Wunderground v.1.15,2013-07-04 14:15:00,
2013-07-04 10:20:00,80.9,74.5,30.02,East,86,13.0,22.0,81,0.00,,,0.00,Wunderground v.1.15,2013-07-04 14:20:00,
2013-07-04 10:30:00,81.1,74.7,30.02,SSE,148,13.0,13.0,81,0.00,,,0.00,Wunderground v.1.15,2013-07-04 14:30:00,
2013-07-04 10:35:00,81.2,74.4,30.02,East,100,15.0,20.0,80,0.00,,,0.00,Wunderground v.1.15,2013-07-04 14:35:00,
2013-07-04 10:45:00,81.4,75.0,30.02,ESE,108,13.0,22.0,81,0.00,,,0.00,Wunderground v.1.15,2013-07-04 14:45:00,
2013-07-04 10:50:00,81.2,74.4,30.02,East,87,15.0,22.0,80,0.00,,,0.00,Wunderground v.1.15,2013-07-04 14:50:00,
2013-07-04 11:00:00,81.8,74.6,30.02,ESE,116,11.0,22.0,79,0.00,,,0.00,Wunderground v.1.15,2013-07-04 15:00:00,
2013-07-04 11:05:00,81.8,74.3,30.02,East,94,13.0,22.0,78,0.00,,,0.00,Wunderground v.1.15,2013-07-04 15:05:00,
2013-07-04 11:10:00,82.0,74.5,30.02,ESE,103,13.0,13.0,78,0.00,,,0.00,Wunderground v.1.15,2013-07-04 15:10:00,
2013-07-04 11:20:00,82.2,74.3,30.02,ESE,120,11.0,22.0,77,0.00,,,0.00,Wunderground v.1.15,2013-07-04 15:20:00,
2013-07-04 11:30:00,82.4,74.1,30.02,SE,129,13.0,13.0,76,0.00,,,0.00,Wunderground v.1.15,2013-07-04 15:30:00,
2013-07-04 11:35:00,82.2,74.3,30.02,East,96,14.0,14.0,77,0.00,,,0.00,Wunderground v.1.15,2013-07-04 15:35:00,
2013-07-04 11:40:00,82.4,74.1,30.02,East,88,12.0,12.0,76,0.00,,,0.00,Wunderground v.1.15,2013-07-04 15:40:00,
2013-07-04 11:50:00,82.8,74.1,30.02,ESE,103,11.0,22.0,75,0.00,,,0.00,Wunderground v.1.15,2013-07-04 15:50:00,
2013-07-04 11:55:00,83.2,74.4,30.02,ESE,113,9.0,22.0,75,0.00,,,0.00,Wunderground v.1.15,2013-07-04 15:55:00,
2013-07-04 12:05:00,83.6,74.4,30.03,ESE,118,9.0,22.0,74,0.00,,,0.00,Wunderground v.1.15,2013-07-04 16:05:00,
2013-07-04 12:10:00,83.8,74.2,30.03,South,173,9.0,9.0,73,0.00,,,0.00,Wunderground v.1.15,2013-07-04 16:10:00,
2013-07-04 12:20:00,84.1,74.9,30.02,ESE,110,9.0,24.0,74,0.00,,,0.00,Wunderground v.1.15,2013-07-04 16:20:00,
2013-07-04 12:25:00,84.0,74.0,30.02,ESE,111,12.0,24.0,72,0.00,,,0.00,Wunderground v.1.15,2013-07-04 16:25:00,
2013-07-04 12:35:00,84.1,73.3,30.02,ESE,108,13.0,15.0,70,0.00,,,0.00,Wunderground v.1.15,2013-07-04 16:35:00,
2013-07-04 12:40:00,84.5,74.1,30.02,SE,136,15.0,15.0,71,0.00,,,0.00,Wunderground v.1.15,2013-07-04 16:40:00,
2013-07-04 12:50:00,85.1,73.8,30.02,SE,129,16.0,16.0,69,0.00,,,0.00,Wunderground v.1.15,2013-07-04 16:50:00,
2013-07-04 12:55:00,85.5,73.3,30.02,ESE,115,14.0,24.0,67,0.00,,,0.00,Wunderground v.1.15,2013-07-04 16:55:00,
2013-07-04 13:05:00,86.3,74.0,30.02,SSE,147,13.0,24.0,67,0.00,,,0.00,Wunderground v.1.15,2013-07-04 17:05:00,
2013-07-04 13:10:00,86.3,73.6,30.02,SSE,155,10.0,10.0,66,0.00,,,0.00,Wunderground v.1.15,2013-07-04 17:10:00,
2013-07-04 13:20:00,85.5,73.3,30.02,ESE,115,9.0,24.0,67,0.00,,,0.00,Wunderground v.1.15,2013-07-04 17:20:00,
2013-07-04 13:25:00,85.9,72.8,30.02,SE,141,11.0,24.0,65,0.00,,,0.00,Wunderground v.1.15,2013-07-04 17:25:00,
2013-07-04 13:35:00,87.0,72.9,30.01,SE,144,9.0,24.0,63,0.00,,,0.00,Wunderground v.1.15,2013-07-04 17:35:00,
2013-07-04 13:40:00,87.4,72.8,30.01,ESE,103,9.0,24.0,62,0.00,,,0.00,Wunderground v.1.15,2013-07-04 17:40:00,
2013-07-04 13:45:00,86.5,72.9,30.01,SSE,150,10.0,24.0,64,0.00,,,0.00,Wunderground v.1.15,2013-07-04 17:45:00,
2013-07-04 13:55:00,86.1,73.0,30.00,SSE,155,11.0,24.0,65,0.00,,,0.00,Wunderground v.1.15,2013-07-04 17:55:00,
2013-07-04 14:00:00,86.7,73.5,30.00,ESE,102,8.0,24.0,65,0.00,,,0.00,Wunderground v.1.15,2013-07-04 18:00:00,
2013-07-04 14:10:00,87.6,73.0,30.00,SSE,153,8.0,8.0,62,0.00,,,0.00,Wunderground v.1.15,2013-07-04 18:10:00,
2013-07-04 14:15:00,87.8,74.1,30.00,SE,129,6.0,24.0,64,0.00,,,0.00,Wunderground v.1.15,2013-07-04 18:15:00,
2013-07-04 14:20:00,87.8,73.2,30.00,East,99,5.0,24.0,62,0.00,,,0.00,Wunderground v.1.15,2013-07-04 18:20:00,
2013-07-04 14:30:00,88.0,71.4,30.00,ESE,116,7.0,24.0,58,0.00,,,0.00,Wunderground v.1.15,2013-07-04 18:30:00,
2013-07-04 14:35:00,88.2,72.6,29.99,SE,145,8.0,24.0,60,0.00,,,0.00,Wunderground v.1.15,2013-07-04 18:35:00,
2013-07-04 14:45:00,87.8,71.7,29.99,SSE,148,9.0,9.0,59,0.00,,,0.00,Wunderground v.1.15,2013-07-04 18:45:00,
2013-07-04 14:50:00,87.6,72.0,29.99,WSW,249,10.0,24.0,60,0.00,,,0.00,Wunderground v.1.15,2013-07-04 18:50:00,
2013-07-04 14:55:00,87.8,74.1,29.99,WSW,247,7.0,24.0,64,0.00,,,0.00,Wunderground v.1.15,2013-07-04 18:55:00,
2013-07-04 15:05:00,87.8,75.0,29.99,South,175,10.0,24.0,66,0.00,,,0.00,Wunderground v.1.15,2013-07-04 19:05:00,
2013-07-04 15:15:00,87.6,75.3,29.99,SW,226,10.0,16.0,67,0.00,,,0.00,Wunderground v.1.15,2013-07-04 19:15:00,
2013-07-04 15:20:00,87.2,74.9,29.98,East,84,9.0,9.0,67,0.00,,,0.00,Wunderground v.1.15,2013-07-04 19:20:00,
2013-07-04 15:30:00,81.6,72.1,29.98,NE,51,7.0,20.0,73,0.00,,,0.00,Wunderground v.1.15,2013-07-04 19:30:00,
2013-07-04 15:35:00,77.7,70.7,30.01,ESE,119,9.0,23.0,79,1.16,,,0.05,Wunderground v.1.15,2013-07-04 19:35:00,
2013-07-04 15:40:00,76.0,71.8,30.01,ESE,105,11.0,11.0,87,1.24,,,0.15,Wunderground v.1.15,2013-07-04 19:40:00,
2013-07-04 15:50:00,73.0,68.6,30.02,South,191,13.0,13.0,86,1.94,,,0.44,Wunderground v.1.15,2013-07-04 19:50:00,
2013-07-04 15:55:00,73.3,68.5,30.02,South,175,8.0,20.0,85,1.73,,,0.60,Wunderground v.1.15,2013-07-04 19:55:00,
2013-07-04 16:05:00,73.5,70.1,30.01,SSE,161,3.0,3.0,89,0.44,,,0.81,Wunderground v.1.15,2013-07-04 20:05:00,
2013-07-04 16:10:00,74.2,71.7,30.01,ESE,123,9.0,25.0,92,0.46,,,0.84,Wunderground v.1.15,2013-07-04 20:10:00,
2013-07-04 16:15:00,72.3,68.9,30.01,South,174,16.0,25.0,89,1.45,,,0.95,Wunderground v.1.15,2013-07-04 20:15:00,
2013-07-04 16:25:00,71.1,68.3,30.02,South,191,8.0,20.0,91,1.19,,,1.14,Wunderground v.1.15,2013-07-04 20:25:00,
2013-07-04 16:30:00,70.9,68.1,30.02,South,191,0.0,20.0,91,0.96,,,1.24,Wunderground v.1.15,2013-07-04 20:30:00,
2013-07-04 16:40:00,70.9,68.5,30.00,South,191,0.0,20.0,92,0.34,,,1.35,Wunderground v.1.15,2013-07-04 20:40:00,
2013-07-04 16:45:00,71.1,68.7,30.00,South,191,0.0,20.0,92,0.09,,,1.35,Wunderground v.1.15,2013-07-04 20:45:00,
2013-07-04 16:50:00,71.6,69.5,29.99,South,191,0.0,20.0,93,0.05,,,1.35,Wunderground v.1.15,2013-07-04 20:50:00,
2013-07-04 17:00:00,72.5,70.7,29.99,South,191,0.0,20.0,94,0.04,,,1.36,Wunderground v.1.15,2013-07-04 21:00:00,
2013-07-04 17:05:00,72.7,70.9,29.99,South,191,0.0,20.0,94,0.04,,,1.36,Wunderground v.1.15,2013-07-04 21:05:00,
2013-07-04 17:15:00,72.5,70.7,29.99,ENE,70,0.0,20.0,94,0.00,,,1.36,Wunderground v.1.15,2013-07-04 21:15:00,
2013-07-04 17:20:00,72.8,71.6,29.98,ENE,70,0.0,20.0,96,0.00,,,1.36,Wunderground v.1.15,2013-07-04 21:20:00,
2013-07-04 17:30:00,73.9,72.7,29.98,ENE,70,0.0,20.0,96,0.00,,,1.36,Wunderground v.1.15,2013-07-04 21:30:00,
2013-07-04 17:35:00,74.0,72.8,29.97,NE,53,0.0,20.0,96,0.00,,,1.36,Wunderground v.1.15,2013-07-04 21:35:00,
2013-07-04 17:45:00,74.0,72.8,29.97,East,95,0.0,20.0,96,0.00,,,1.36,Wunderground v.1.15,2013-07-04 21:45:00,
2013-07-04 17:50:00,74.6,73.7,29.98,East,95,0.0,20.0,97,0.00,,,1.36,Wunderground v.1.15,2013-07-04 21:50:00,
2013-07-04 18:00:00,75.6,74.4,29.98,East,86,0.0,20.0,96,0.00,,,1.36,Wunderground v.1.15,2013-07-04 22:00:00,
2013-07-04 18:05:00,75.6,74.4,30.00,East,84,0.0,20.0,96,0.00,,,1.36,Wunderground v.1.15,2013-07-04 22:05:00,
2013-07-04 18:15:00,75.8,74.6,30.00,East,84,0.0,1.0,96,0.00,,,1.36,Wunderground v.1.15,2013-07-04 22:15:00,
2013-07-04 18:20:00,76.0,74.8,30.00,East,84,0.0,1.0,96,0.00,,,1.36,Wunderground v.1.15,2013-07-04 22:20:00,
2013-07-04 18:25:00,76.3,75.1,30.00,East,84,0.0,1.0,96,0.00,,,1.36,Wunderground v.1.15,2013-07-04 22:25:00,
2013-07-04 18:35:00,76.1,74.9,30.00,ENE,73,1.0,3.0,96,0.00,,,1.36,Wunderground v.1.15,2013-07-04 22:35:00,
2013-07-04 18:40:00,76.0,74.8,30.00,ENE,70,2.0,2.0,96,0.00,,,1.36,Wunderground v.1.15,2013-07-04 22:40:00,
2013-07-04 18:50:00,76.0,74.8,30.00,ENE,63,0.0,6.0,96,0.00,,,1.36,Wunderground v.1.15,2013-07-04 22:50:00,
2013-07-04 18:55:00,75.6,74.1,30.00,ESE,123,2.0,6.0,95,0.00,,,1.36,Wunderground v.1.15,2013-07-04 22:55:00,
2013-07-04 19:05:00,74.9,73.4,30.01,ESE,118,3.0,3.0,95,0.20,,,1.39,Wunderground v.1.15,2013-07-04 23:05:00,
2013-07-04 19:15:00,74.4,73.2,30.01,East,92,2.0,4.0,96,0.14,,,1.45,Wunderground v.1.15,2013-07-04 23:15:00,
2013-07-04 19:20:00,74.4,73.2,30.01,East,92,0.0,1.0,96,0.08,,,1.46,Wunderground v.1.15,2013-07-04 23:20:00,
2013-07-04 19:25:00,74.6,73.4,30.01,East,92,0.0,1.0,96,0.08,,,1.46,Wunderground v.1.15,2013-07-04 23:25:00,
2013-07-04 19:35:00,74.6,73.4,30.00,East,92,0.0,1.0,96,0.04,,,1.46,Wunderground v.1.15,2013-07-04 23:35:00,
2013-07-04 19:40:00,74.6,73.4,30.00,East,92,0.0,1.0,96,0.00,,,1.46,Wunderground v.1.15,2013-07-04 23:40:00,
2013-07-04 19:50:00,74.6,73.4,30.01,East,93,0.0,1.0,96,0.00,,,1.46,Wunderground v.1.15,2013-07-04 23:50:00,
2013-07-04 19:55:00,74.6,73.4,30.01,East,92,0.0,1.0,96,0.00,,,1.46,Wunderground v.1.15,2013-07-04 23:55:00,
2013-07-04 20:05:00,74.6,73.4,30.01,East,92,0.0,1.0,96,0.00,,,1.47,Wunderground v.1.15,2013-07-05 00:05:00,
2013-07-04 20:10:00,74.4,73.2,30.01,East,91,0.0,1.0,96,0.00,,,1.47,Wunderground v.1.15,2013-07-05 00:10:00,
2013-07-04 20:20:00,74.6,73.7,30.03,East,91,0.0,1.0,97,0.00,,,1.47,Wunderground v.1.15,2013-07-05 00:20:00,
2013-07-04 20:30:00,74.6,73.7,30.03,East,91,0.0,1.0,97,0.00,,,1.47,Wunderground v.1.15,2013-07-05 00:30:00,
2013-07-04 20:35:00,74.6,73.7,30.04,East,91,0.0,1.0,97,0.00,,,1.47,Wunderground v.1.15,2013-07-05 00:35:00,
2013-07-04 20:45:00,74.6,73.7,30.04,East,91,0.0,1.0,97,0.00,,,1.47,Wunderground v.1.15,2013-07-05 00:45:00,
2013-07-04 20:55:00,74.9,74.0,30.05,East,91,0.0,1.0,97,0.00,,,1.47,Wunderground v.1.15,2013-07-05 00:55:00,
2013-07-04 21:00:00,74.9,74.0,30.05,East,91,0.0,1.0,97,0.00,,,1.47,Wunderground v.1.15,2013-07-05 01:00:00,
2013-07-04 21:10:00,74.7,73.8,30.05,East,91,0.0,0.0,97,0.00,,,1.47,Wunderground v.1.15,2013-07-05 01:10:00,
2013-07-04 21:20:00,74.7,73.8,30.04,East,84,0.0,0.0,97,0.00,,,1.47,Wunderground v.1.15,2013-07-05 01:20:00,
2013-07-04 21:25:00,74.6,73.7,30.04,North,358,0.0,0.0,97,0.00,,,1.47,Wunderground v.1.15,2013-07-05 01:25:00,
2013-07-04 21:35:00,74.7,73.8,30.03,NW,308,4.0,10.0,97,0.00,,,1.48,Wunderground v.1.15,2013-07-05 01:35:00,
2013-07-04 21:45:00,74.9,74.0,30.03,North,350,1.0,4.0,97,0.00,,,1.48,Wunderground v.1.15,2013-07-05 01:45:00,
2013-07-04 21:50:00,75.1,74.2,30.04,North,349,0.0,0.0,97,0.00,,,1.48,Wunderground v.1.15,2013-07-05 01:50:00,
2013-07-04 22:00:00,75.1,74.2,30.04,NNE,19,0.0,0.0,97,0.00,,,1.48,Wunderground v.1.15,2013-07-05 02:00:00,
2013-07-04 22:05:00,75.1,74.2,30.04,NE,44,0.0,0.0,97,0.00,,,1.48,Wunderground v.1.15,2013-07-05 02:05:00,
2013-07-04 22:15:00,74.9,74.0,30.04,NE,46,0.0,0.0,97,0.00,,,1.48,Wunderground v.1.15,2013-07-05 02:15:00,
2013-07-04 22:25:00,74.7,73.8,30.04,ENE,68,1.0,3.0,97,0.00,,,1.48,Wunderground v.1.15,2013-07-05 02:25:00,
2013-07-04 22:30:00,74.7,73.8,30.04,NE,51,1.0,1.0,97,0.00,,,1.48,Wunderground v.1.15,2013-07-05 02:30:00,
2013-07-04 22:40:00,74.7,74.1,30.03,ENE,72,0.0,0.0,98,0.00,,,1.48,Wunderground v.1.15,2013-07-05 02:40:00,
2013-07-04 22:45:00,74.7,74.1,30.03,NE,51,0.0,0.0,98,0.00,,,1.48,Wunderground v.1.15,2013-07-05 02:45:00,
2013-07-04 22:55:00,74.7,74.1,30.03,NE,51,1.0,1.0,98,0.00,,,1.48,Wunderground v.1.15,2013-07-05 02:55:00,
2013-07-04 23:05:00,74.7,74.1,30.05,NE,51,0.0,1.0,98,0.00,,,1.48,Wunderground v.1.15,2013-07-05 03:05:00,
2013-07-04 23:10:00,74.6,74.0,30.05,NE,52,0.0,0.0,98,0.00,,,1.48,Wunderground v.1.15,2013-07-05 03:10:00,
2013-07-04 23:20:00,74.6,74.0,30.05,NE,52,0.0,0.0,98,0.00,,,1.48,Wunderground v.1.15,2013-07-05 03:20:00,
2013-07-04 23:25:00,74.6,74.0,30.05,NE,52,0.0,0.0,98,0.00,,,1.48,Wunderground v.1.15,2013-07-05 03:25:00,
2013-07-04 23:35:00,74.2,73.6,30.05,ENE,60,1.0,1.0,98,0.00,,,1.48,Wunderground v.1.15,2013-07-05 03:35:00,
2013-07-04 23:45:00,74.0,73.4,30.05,ENE,69,1.0,1.0,98,0.00,,,1.48,Wunderground v.1.15,2013-07-05 03:45:00,
2013-07-04 23:55:00,73.7,73.1,30.05,ENE,65,0.0,4.0,98,0.00,,,1.48,Wunderground v.1.15,2013-07-05 03:55:00,